sensor_id;sensor_type;location;lat;lon;timestamp;temperature;humidity
28532;DHT22;15738;44.860;10.066;2023-06-26T00:00:19;23.60;99.90
28532;DHT22;15738;44.860;10.066;2023-06-26T00:03:06;23.50;99.90
28532;DHT22;15738;44.860;10.066;2023-06-26T00:05:51;23.50;99.90
28532;DHT22;15738;44.860;10.066;2023-06-26T00:08:37;23.50;99.90
28532;DHT22;15738;44.860;10.066;2023-06-26T00:11:22;23.50;99.90
28532;DHT22;15738;44.860;10.066;2023-06-26T00:14:08;23.50;99.90
28532;DHT22;15738;44.860;10.066;2023-06-26T00:16:54;23.50;99.90
28532;DHT22;15738;44.860;10.066;2023-06-26T00:19:40;23.50;99.90
28532;DHT22;15738;44.860;10.066;2023-06-26T00:22:25;23.40;99.90
28532;DHT22;15738;44.860;10.066;2023-06-26T00:25:11;23.30;99.90
28532;DHT22;15738;44.860;10.066;2023-06-26T00:27:57;23.30;99.90
28532;DHT22;15738;44.860;10.066;2023-06-26T00:30:43;23.30;99.90
28532;DHT22;15738;44.860;10.066;2023-06-26T00:33:28;23.30;99.90
28532;DHT22;15738;44.860;10.066;2023-06-26T00:36:15;23.20;99.90
28532;DHT22;15738;44.860;10.066;2023-06-26T00:39:01;23.30;99.90
28532;DHT22;15738;44.860;10.066;2023-06-26T00:41:48;23.20;99.90
28532;DHT22;15738;44.860;10.066;2023-06-26T00:44:36;23.20;99.90
28532;DHT22;15738;44.860;10.066;2023-06-26T00:47:21;23.10;99.90
28532;DHT22;15738;44.860;10.066;2023-06-26T00:50:07;23.00;99.90
28532;DHT22;15738;44.860;10.066;2023-06-26T00:52:54;23.10;99.90
28532;DHT22;15738;44.860;10.066;2023-06-26T00:55:42;23.10;99.90
28532;DHT22;15738;44.860;10.066;2023-06-26T00:58:27;23.10;99.90
28532;DHT22;15738;44.860;10.066;2023-06-26T01:01:15;23.10;99.90
28532;DHT22;15738;44.860;10.066;2023-06-26T01:04:06;23.10;99.90
28532;DHT22;15738;44.860;10.066;2023-06-26T01:06:52;23.10;99.90
28532;DHT22;15738;44.860;10.066;2023-06-26T01:09:38;23.10;99.90
28532;DHT22;15738;44.860;10.066;2023-06-26T01:12:24;23.10;99.90
28532;DHT22;15738;44.860;10.066;2023-06-26T01:15:10;23.10;99.90
28532;DHT22;15738;44.860;10.066;2023-06-26T01:17:56;23.20;99.90
28532;DHT22;15738;44.860;10.066;2023-06-26T01:20:45;23.10;99.90
28532;DHT22;15738;44.860;10.066;2023-06-26T01:23:42;23.10;99.90
28532;DHT22;15738;44.860;10.066;2023-06-26T01:26:35;23.00;99.90
28532;DHT22;15738;44.860;10.066;2023-06-26T01:29:21;23.10;99.90
28532;DHT22;15738;44.860;10.066;2023-06-26T01:32:08;23.00;99.90
28532;DHT22;15738;44.860;10.066;2023-06-26T01:34:54;23.00;99.90
28532;DHT22;15738;44.860;10.066;2023-06-26T01:37:40;22.90;99.90
28532;DHT22;15738;44.860;10.066;2023-06-26T01:40:26;22.90;99.90
28532;DHT22;15738;44.860;10.066;2023-06-26T01:46:14;22.90;99.90
28532;DHT22;15738;44.860;10.066;2023-06-26T01:49:09;22.80;99.90
28532;DHT22;15738;44.860;10.066;2023-06-26T01:51:58;22.70;99.90
28532;DHT22;15738;44.860;10.066;2023-06-26T01:57:36;22.60;99.90
28532;DHT22;15738;44.860;10.066;2023-06-26T02:00:22;22.40;99.90
28532;DHT22;15738;44.860;10.066;2023-06-26T02:03:08;22.30;99.90
28532;DHT22;15738;44.860;10.066;2023-06-26T02:05:56;22.30;99.90
28532;DHT22;15738;44.860;10.066;2023-06-26T02:08:44;22.20;99.90
28532;DHT22;15738;44.860;10.066;2023-06-26T02:11:30;22.10;99.90
28532;DHT22;15738;44.860;10.066;2023-06-26T02:14:16;22.10;99.90
28532;DHT22;15738;44.860;10.066;2023-06-26T02:17:02;21.90;99.90
28532;DHT22;15738;44.860;10.066;2023-06-26T02:19:48;21.80;99.90
28532;DHT22;15738;44.860;10.066;2023-06-26T02:22:33;21.90;99.90
28532;DHT22;15738;44.860;10.066;2023-06-26T02:25:19;21.90;99.90
28532;DHT22;15738;44.860;10.066;2023-06-26T02:28:05;21.90;99.90
28532;DHT22;15738;44.860;10.066;2023-06-26T02:30:50;22.00;99.90
28532;DHT22;15738;44.860;10.066;2023-06-26T02:33:36;22.00;99.90
28532;DHT22;15738;44.860;10.066;2023-06-26T02:36:22;22.00;99.90
28532;DHT22;15738;44.860;10.066;2023-06-26T02:39:08;22.00;99.90
28532;DHT22;15738;44.860;10.066;2023-06-26T02:41:53;22.00;99.90
28532;DHT22;15738;44.860;10.066;2023-06-26T02:44:41;22.00;99.90
28532;DHT22;15738;44.860;10.066;2023-06-26T02:47:26;22.00;99.90
28532;DHT22;15738;44.860;10.066;2023-06-26T02:50:12;22.00;99.90
28532;DHT22;15738;44.860;10.066;2023-06-26T02:53:24;21.90;99.90
28532;DHT22;15738;44.860;10.066;2023-06-26T02:56:09;21.90;99.90
28532;DHT22;15738;44.860;10.066;2023-06-26T02:58:55;21.90;99.90
28532;DHT22;15738;44.860;10.066;2023-06-26T03:01:42;21.90;99.90
28532;DHT22;15738;44.860;10.066;2023-06-26T03:04:27;21.90;99.90
28532;DHT22;15738;44.860;10.066;2023-06-26T03:07:13;21.90;99.90
28532;DHT22;15738;44.860;10.066;2023-06-26T03:10:00;21.80;99.90
28532;DHT22;15738;44.860;10.066;2023-06-26T03:12:45;21.90;99.90
28532;DHT22;15738;44.860;10.066;2023-06-26T03:15:31;21.80;99.90
28532;DHT22;15738;44.860;10.066;2023-06-26T03:18:17;21.80;99.90
28532;DHT22;15738;44.860;10.066;2023-06-26T03:21:03;21.90;99.90
28532;DHT22;15738;44.860;10.066;2023-06-26T03:23:50;21.90;99.90
28532;DHT22;15738;44.860;10.066;2023-06-26T03:26:36;21.90;99.90
28532;DHT22;15738;44.860;10.066;2023-06-26T03:29:22;21.90;99.90
28532;DHT22;15738;44.860;10.066;2023-06-26T03:32:08;21.80;99.90
28532;DHT22;15738;44.860;10.066;2023-06-26T03:34:54;21.80;99.90
28532;DHT22;15738;44.860;10.066;2023-06-26T03:37:39;21.90;99.90
28532;DHT22;15738;44.860;10.066;2023-06-26T03:40:26;21.80;99.90
28532;DHT22;15738;44.860;10.066;2023-06-26T03:43:12;21.80;99.90
28532;DHT22;15738;44.860;10.066;2023-06-26T03:46:07;21.80;99.90
28532;DHT22;15738;44.860;10.066;2023-06-26T03:48:53;21.80;99.90
28532;DHT22;15738;44.860;10.066;2023-06-26T03:51:39;21.70;99.90
28532;DHT22;15738;44.860;10.066;2023-06-26T03:54:25;21.70;99.90
28532;DHT22;15738;44.860;10.066;2023-06-26T03:57:11;21.70;99.90
28532;DHT22;15738;44.860;10.066;2023-06-26T03:59:57;21.70;99.90
28532;DHT22;15738;44.860;10.066;2023-06-26T04:02:42;21.80;99.90
28532;DHT22;15738;44.860;10.066;2023-06-26T04:05:29;21.80;99.90
28532;DHT22;15738;44.860;10.066;2023-06-26T04:08:15;21.70;99.90
28532;DHT22;15738;44.860;10.066;2023-06-26T04:11:01;21.80;99.90
28532;DHT22;15738;44.860;10.066;2023-06-26T04:13:47;21.80;99.90
28532;DHT22;15738;44.860;10.066;2023-06-26T04:16:35;21.80;99.90
28532;DHT22;15738;44.860;10.066;2023-06-26T04:19:21;21.80;99.90
28532;DHT22;15738;44.860;10.066;2023-06-26T04:22:07;21.80;99.90
28532;DHT22;15738;44.860;10.066;2023-06-26T04:24:53;21.90;99.90
28532;DHT22;15738;44.860;10.066;2023-06-26T04:27:40;22.00;99.90
28532;DHT22;15738;44.860;10.066;2023-06-26T04:30:26;22.10;99.90
28532;DHT22;15738;44.860;10.066;2023-06-26T04:33:12;22.10;99.90
28532;DHT22;15738;44.860;10.066;2023-06-26T04:35:58;22.20;99.90
28532;DHT22;15738;44.860;10.066;2023-06-26T04:38:45;22.20;99.90
28532;DHT22;15738;44.860;10.066;2023-06-26T04:41:31;22.30;99.90
28532;DHT22;15738;44.860;10.066;2023-06-26T04:44:16;22.40;99.90
28532;DHT22;15738;44.860;10.066;2023-06-26T04:47:02;22.50;99.90
28532;DHT22;15738;44.860;10.066;2023-06-26T04:49:48;22.60;99.90
28532;DHT22;15738;44.860;10.066;2023-06-26T04:52:33;22.70;99.90
28532;DHT22;15738;44.860;10.066;2023-06-26T04:55:19;22.90;99.90
28532;DHT22;15738;44.860;10.066;2023-06-26T04:58:06;23.00;99.90
28532;DHT22;15738;44.860;10.066;2023-06-26T05:00:52;23.10;99.90
28532;DHT22;15738;44.860;10.066;2023-06-26T05:03:38;23.20;99.90
28532;DHT22;15738;44.860;10.066;2023-06-26T05:06:23;23.30;99.90
28532;DHT22;15738;44.860;10.066;2023-06-26T05:09:09;23.40;99.90
28532;DHT22;15738;44.860;10.066;2023-06-26T05:11:56;23.50;99.90
28532;DHT22;15738;44.860;10.066;2023-06-26T05:14:42;23.60;99.90
28532;DHT22;15738;44.860;10.066;2023-06-26T05:17:28;23.70;99.90
28532;DHT22;15738;44.860;10.066;2023-06-26T05:20:13;23.90;99.90
28532;DHT22;15738;44.860;10.066;2023-06-26T05:22:59;24.00;99.90
28532;DHT22;15738;44.860;10.066;2023-06-26T05:25:45;24.10;99.90
28532;DHT22;15738;44.860;10.066;2023-06-26T05:28:31;24.20;99.90
28532;DHT22;15738;44.860;10.066;2023-06-26T05:31:19;24.30;99.90
28532;DHT22;15738;44.860;10.066;2023-06-26T05:34:04;24.40;99.90
28532;DHT22;15738;44.860;10.066;2023-06-26T05:36:50;24.50;99.90
28532;DHT22;15738;44.860;10.066;2023-06-26T05:39:36;24.60;99.90
28532;DHT22;15738;44.860;10.066;2023-06-26T05:42:22;24.70;99.90
28532;DHT22;15738;44.860;10.066;2023-06-26T05:45:08;24.90;99.90
28532;DHT22;15738;44.860;10.066;2023-06-26T05:47:54;25.10;99.90
28532;DHT22;15738;44.860;10.066;2023-06-26T05:50:41;25.30;99.90
28532;DHT22;15738;44.860;10.066;2023-06-26T05:53:27;25.60;99.90
28532;DHT22;15738;44.860;10.066;2023-06-26T05:56:13;25.90;99.90
28532;DHT22;15738;44.860;10.066;2023-06-26T05:58:59;26.20;99.90
28532;DHT22;15738;44.860;10.066;2023-06-26T06:01:45;26.40;99.90
28532;DHT22;15738;44.860;10.066;2023-06-26T06:04:39;26.60;99.90
28532;DHT22;15738;44.860;10.066;2023-06-26T06:07:27;26.80;99.90
28532;DHT22;15738;44.860;10.066;2023-06-26T06:10:13;27.10;99.90
28532;DHT22;15738;44.860;10.066;2023-06-26T06:12:59;27.20;99.90
28532;DHT22;15738;44.860;10.066;2023-06-26T06:15:45;27.40;99.90
28532;DHT22;15738;44.860;10.066;2023-06-26T06:18:30;27.60;99.90
28532;DHT22;15738;44.860;10.066;2023-06-26T06:21:16;27.70;99.90
28532;DHT22;15738;44.860;10.066;2023-06-26T06:24:02;28.40;99.90
28532;DHT22;15738;44.860;10.066;2023-06-26T06:26:48;28.10;99.90
28532;DHT22;15738;44.860;10.066;2023-06-26T06:29:34;28.40;99.90
28532;DHT22;15738;44.860;10.066;2023-06-26T06:32:20;28.60;99.90
28532;DHT22;15738;44.860;10.066;2023-06-26T06:35:06;28.60;99.90
28532;DHT22;15738;44.860;10.066;2023-06-26T06:37:55;28.80;99.90
28532;DHT22;15738;44.860;10.066;2023-06-26T06:40:40;28.90;99.90
28532;DHT22;15738;44.860;10.066;2023-06-26T06:43:27;29.00;99.90
28532;DHT22;15738;44.860;10.066;2023-06-26T06:46:13;29.30;99.90
28532;DHT22;15738;44.860;10.066;2023-06-26T06:48:59;29.50;99.90
28532;DHT22;15738;44.860;10.066;2023-06-26T06:51:45;29.80;99.90
28532;DHT22;15738;44.860;10.066;2023-06-26T06:54:31;29.80;99.90
28532;DHT22;15738;44.860;10.066;2023-06-26T06:57:17;30.00;99.90
28532;DHT22;15738;44.860;10.066;2023-06-26T07:00:12;29.90;99.90
28532;DHT22;15738;44.860;10.066;2023-06-26T07:02:59;30.00;99.90
28532;DHT22;15738;44.860;10.066;2023-06-26T07:05:45;30.30;99.90
28532;DHT22;15738;44.860;10.066;2023-06-26T07:08:31;30.40;99.90
28532;DHT22;15738;44.860;10.066;2023-06-26T07:11:19;30.90;99.90
28532;DHT22;15738;44.860;10.066;2023-06-26T07:14:05;31.00;99.90
28532;DHT22;15738;44.860;10.066;2023-06-26T07:16:51;31.20;99.90
28532;DHT22;15738;44.860;10.066;2023-06-26T07:19:36;31.20;99.90
28532;DHT22;15738;44.860;10.066;2023-06-26T07:22:23;31.40;99.90
28532;DHT22;15738;44.860;10.066;2023-06-26T07:25:08;31.50;99.90
28532;DHT22;15738;44.860;10.066;2023-06-26T07:27:54;31.50;99.90
28532;DHT22;15738;44.860;10.066;2023-06-26T07:30:40;31.70;99.90
28532;DHT22;15738;44.860;10.066;2023-06-26T07:33:26;31.70;99.90
28532;DHT22;15738;44.860;10.066;2023-06-26T07:36:12;31.70;99.90
28532;DHT22;15738;44.860;10.066;2023-06-26T07:38:57;31.90;99.90
28532;DHT22;15738;44.860;10.066;2023-06-26T07:41:43;32.00;99.90
28532;DHT22;15738;44.860;10.066;2023-06-26T07:44:29;32.10;99.90
28532;DHT22;15738;44.860;10.066;2023-06-26T07:47:15;32.10;99.90
28532;DHT22;15738;44.860;10.066;2023-06-26T07:50:00;32.20;99.90
28532;DHT22;15738;44.860;10.066;2023-06-26T07:52:47;32.50;99.90
28532;DHT22;15738;44.860;10.066;2023-06-26T07:55:32;32.60;99.90
28532;DHT22;15738;44.860;10.066;2023-06-26T07:58:18;32.80;99.90
28532;DHT22;15738;44.860;10.066;2023-06-26T08:01:04;32.80;99.90
28532;DHT22;15738;44.860;10.066;2023-06-26T08:03:50;33.00;99.90
28532;DHT22;15738;44.860;10.066;2023-06-26T08:06:35;32.80;99.70
28532;DHT22;15738;44.860;10.066;2023-06-26T08:09:24;33.00;99.70
28532;DHT22;15738;44.860;10.066;2023-06-26T08:12:10;32.90;99.80
28532;DHT22;15738;44.860;10.066;2023-06-26T08:14:58;33.00;99.70
28532;DHT22;15738;44.860;10.066;2023-06-26T08:17:43;33.10;99.20
28532;DHT22;15738;44.860;10.066;2023-06-26T08:20:29;33.50;99.40
28532;DHT22;15738;44.860;10.066;2023-06-26T08:23:15;33.90;98.70
28532;DHT22;15738;44.860;10.066;2023-06-26T08:26:01;34.10;98.60
28532;DHT22;15738;44.860;10.066;2023-06-26T08:28:46;34.30;98.50
28532;DHT22;15738;44.860;10.066;2023-06-26T08:31:32;34.50;97.90
28532;DHT22;15738;44.860;10.066;2023-06-26T08:34:20;34.70;97.70
28532;DHT22;15738;44.860;10.066;2023-06-26T08:37:06;34.70;97.40
28532;DHT22;15738;44.860;10.066;2023-06-26T08:39:54;34.70;97.20
28532;DHT22;15738;44.860;10.066;2023-06-26T08:42:40;34.60;96.80
28532;DHT22;15738;44.860;10.066;2023-06-26T08:45:26;33.60;97.20
28532;DHT22;15738;44.860;10.066;2023-06-26T08:48:13;33.90;98.00
28532;DHT22;15738;44.860;10.066;2023-06-26T08:51:01;33.50;97.40
28532;DHT22;15738;44.860;10.066;2023-06-26T08:56:35;33.50;97.00
28532;DHT22;15738;44.860;10.066;2023-06-26T08:59:21;33.70;96.30
28532;DHT22;15738;44.860;10.066;2023-06-26T09:02:07;33.80;96.10
28532;DHT22;15738;44.860;10.066;2023-06-26T09:04:53;33.70;95.00
28532;DHT22;15738;44.860;10.066;2023-06-26T09:07:38;32.90;93.60
28532;DHT22;15738;44.860;10.066;2023-06-26T09:10:24;32.70;94.40
28532;DHT22;15738;44.860;10.066;2023-06-26T09:13:09;33.00;95.80
28532;DHT22;15738;44.860;10.066;2023-06-26T09:16:13;33.30;95.20
28532;DHT22;15738;44.860;10.066;2023-06-26T09:18:59;33.40;95.60
28532;DHT22;15738;44.860;10.066;2023-06-26T09:21:44;33.40;94.60
28532;DHT22;15738;44.860;10.066;2023-06-26T09:24:30;33.20;95.40
28532;DHT22;15738;44.860;10.066;2023-06-26T09:27:16;32.20;94.10
28532;DHT22;15738;44.860;10.066;2023-06-26T09:30:03;32.00;95.30
28532;DHT22;15738;44.860;10.066;2023-06-26T09:32:49;32.00;95.70
28532;DHT22;15738;44.860;10.066;2023-06-26T09:35:39;32.20;94.90
28532;DHT22;15738;44.860;10.066;2023-06-26T09:38:25;32.50;95.60
28532;DHT22;15738;44.860;10.066;2023-06-26T09:41:10;32.80;94.70
28532;DHT22;15738;44.860;10.066;2023-06-26T09:43:57;32.70;95.20
28532;DHT22;15738;44.860;10.066;2023-06-26T09:46:46;32.20;94.60
28532;DHT22;15738;44.860;10.066;2023-06-26T09:49:32;32.30;94.30
28532;DHT22;15738;44.860;10.066;2023-06-26T09:52:18;32.50;93.80
28532;DHT22;15738;44.860;10.066;2023-06-26T09:55:08;32.40;93.40
28532;DHT22;15738;44.860;10.066;2023-06-26T09:57:55;32.20;94.10
28532;DHT22;15738;44.860;10.066;2023-06-26T10:00:42;32.20;93.20
28532;DHT22;15738;44.860;10.066;2023-06-26T10:03:31;32.40;94.60
28532;DHT22;15738;44.860;10.066;2023-06-26T10:06:22;32.40;94.70
28532;DHT22;15738;44.860;10.066;2023-06-26T10:09:09;32.20;94.50
28532;DHT22;15738;44.860;10.066;2023-06-26T10:14:41;32.30;95.30
28532;DHT22;15738;44.860;10.066;2023-06-26T10:17:32;32.50;95.10
28532;DHT22;15738;44.860;10.066;2023-06-26T10:20:19;31.60;95.50
28532;DHT22;15738;44.860;10.066;2023-06-26T10:23:08;31.70;94.90
28532;DHT22;15738;44.860;10.066;2023-06-26T10:25:55;31.70;95.10
28532;DHT22;15738;44.860;10.066;2023-06-26T10:28:41;31.70;95.50
28532;DHT22;15738;44.860;10.066;2023-06-26T10:31:29;31.60;95.50
28532;DHT22;15738;44.860;10.066;2023-06-26T10:34:16;31.30;96.30
28532;DHT22;15738;44.860;10.066;2023-06-26T10:37:02;31.40;94.70
28532;DHT22;15738;44.860;10.066;2023-06-26T10:39:50;31.20;95.10
28532;DHT22;15738;44.860;10.066;2023-06-26T10:42:38;31.40;95.10
28532;DHT22;15738;44.860;10.066;2023-06-26T10:45:27;31.60;95.50
28532;DHT22;15738;44.860;10.066;2023-06-26T10:48:14;31.80;95.20
28532;DHT22;15738;44.860;10.066;2023-06-26T10:51:11;31.90;95.40
28532;DHT22;15738;44.860;10.066;2023-06-26T10:53:58;31.80;95.10
28532;DHT22;15738;44.860;10.066;2023-06-26T10:56:47;32.00;95.50
28532;DHT22;15738;44.860;10.066;2023-06-26T10:59:34;31.70;95.10
28532;DHT22;15738;44.860;10.066;2023-06-26T11:02:19;31.40;95.00
28532;DHT22;15738;44.860;10.066;2023-06-26T11:05:05;31.30;94.70
28532;DHT22;15738;44.860;10.066;2023-06-26T11:08:09;31.50;95.10
28532;DHT22;15738;44.860;10.066;2023-06-26T11:10:59;31.80;95.30
28532;DHT22;15738;44.860;10.066;2023-06-26T11:13:45;31.90;95.70
28532;DHT22;15738;44.860;10.066;2023-06-26T11:16:31;31.70;94.20
28532;DHT22;15738;44.860;10.066;2023-06-26T11:19:18;31.60;93.70
28532;DHT22;15738;44.860;10.066;2023-06-26T11:22:04;31.90;94.40
28532;DHT22;15738;44.860;10.066;2023-06-26T11:24:51;31.90;94.30
28532;DHT22;15738;44.860;10.066;2023-06-26T11:30:24;31.90;94.20
28532;DHT22;15738;44.860;10.066;2023-06-26T11:33:10;31.90;93.90
28532;DHT22;15738;44.860;10.066;2023-06-26T11:36:07;32.00;94.40
28532;DHT22;15738;44.860;10.066;2023-06-26T11:38:56;31.90;94.50
28532;DHT22;15738;44.860;10.066;2023-06-26T11:41:44;31.80;94.40
28532;DHT22;15738;44.860;10.066;2023-06-26T11:44:30;31.70;94.50
28532;DHT22;15738;44.860;10.066;2023-06-26T11:47:17;31.70;94.20
28532;DHT22;15738;44.860;10.066;2023-06-26T11:50:04;31.80;94.50
28532;DHT22;15738;44.860;10.066;2023-06-26T11:52:56;31.80;95.00
28532;DHT22;15738;44.860;10.066;2023-06-26T11:55:42;31.90;94.40
28532;DHT22;15738;44.860;10.066;2023-06-26T11:58:31;31.90;94.30
28532;DHT22;15738;44.860;10.066;2023-06-26T12:01:17;31.90;95.00
28532;DHT22;15738;44.860;10.066;2023-06-26T12:04:04;32.10;95.90
28532;DHT22;15738;44.860;10.066;2023-06-26T12:06:51;32.40;96.00
28532;DHT22;15738;44.860;10.066;2023-06-26T12:09:41;32.50;95.60
28532;DHT22;15738;44.860;10.066;2023-06-26T12:12:27;32.60;94.60
28532;DHT22;15738;44.860;10.066;2023-06-26T12:15:14;32.40;94.80
28532;DHT22;15738;44.860;10.066;2023-06-26T12:18:00;32.10;94.60
28532;DHT22;15738;44.860;10.066;2023-06-26T12:20:53;32.20;94.90
28532;DHT22;15738;44.860;10.066;2023-06-26T12:23:39;32.40;95.60
28532;DHT22;15738;44.860;10.066;2023-06-26T12:26:25;32.60;95.70
28532;DHT22;15738;44.860;10.066;2023-06-26T12:29:15;32.60;93.90
28532;DHT22;15738;44.860;10.066;2023-06-26T12:32:02;32.50;93.90
28532;DHT22;15738;44.860;10.066;2023-06-26T12:34:49;32.60;94.60
28532;DHT22;15738;44.860;10.066;2023-06-26T12:37:38;32.80;94.30
28532;DHT22;15738;44.860;10.066;2023-06-26T12:40:28;32.80;93.90
28532;DHT22;15738;44.860;10.066;2023-06-26T12:43:25;32.80;94.70
28532;DHT22;15738;44.860;10.066;2023-06-26T12:46:11;32.80;94.70
28532;DHT22;15738;44.860;10.066;2023-06-26T12:48:57;33.00;95.40
28532;DHT22;15738;44.860;10.066;2023-06-26T12:51:43;33.00;95.20
28532;DHT22;15738;44.860;10.066;2023-06-26T12:54:29;33.10;95.40
28532;DHT22;15738;44.860;10.066;2023-06-26T12:57:15;33.00;94.20
28532;DHT22;15738;44.860;10.066;2023-06-26T13:00:01;33.00;94.10
28532;DHT22;15738;44.860;10.066;2023-06-26T13:02:48;33.00;93.80
28532;DHT22;15738;44.860;10.066;2023-06-26T13:05:34;32.70;94.40
28532;DHT22;15738;44.860;10.066;2023-06-26T13:08:21;32.60;94.40
28532;DHT22;15738;44.860;10.066;2023-06-26T13:11:07;32.70;94.00
28532;DHT22;15738;44.860;10.066;2023-06-26T13:13:52;32.80;94.80
28532;DHT22;15738;44.860;10.066;2023-06-26T13:16:54;32.90;94.40
28532;DHT22;15738;44.860;10.066;2023-06-26T13:19:40;32.80;93.80
28532;DHT22;15738;44.860;10.066;2023-06-26T13:22:25;32.70;94.00
28532;DHT22;15738;44.860;10.066;2023-06-26T13:25:11;32.80;94.60
28532;DHT22;15738;44.860;10.066;2023-06-26T13:27:57;32.90;94.10
28532;DHT22;15738;44.860;10.066;2023-06-26T13:30:42;32.90;93.80
28532;DHT22;15738;44.860;10.066;2023-06-26T13:33:28;32.80;93.90
28532;DHT22;15738;44.860;10.066;2023-06-26T13:36:14;32.80;93.80
28532;DHT22;15738;44.860;10.066;2023-06-26T13:39:00;32.90;93.70
28532;DHT22;15738;44.860;10.066;2023-06-26T13:41:46;32.80;93.80
28532;DHT22;15738;44.860;10.066;2023-06-26T13:44:32;32.90;93.70
28532;DHT22;15738;44.860;10.066;2023-06-26T13:47:32;32.90;94.30
28532;DHT22;15738;44.860;10.066;2023-06-26T13:50:20;32.80;94.10
28532;DHT22;15738;44.860;10.066;2023-06-26T13:53:05;32.80;94.00
28532;DHT22;15738;44.860;10.066;2023-06-26T13:55:52;32.80;93.80
28532;DHT22;15738;44.860;10.066;2023-06-26T13:58:37;32.60;93.70
28532;DHT22;15738;44.860;10.066;2023-06-26T14:01:25;32.60;95.10
28532;DHT22;15738;44.860;10.066;2023-06-26T14:04:11;32.60;94.20
28532;DHT22;15738;44.860;10.066;2023-06-26T14:06:56;32.50;94.10
28532;DHT22;15738;44.860;10.066;2023-06-26T14:09:42;32.50;94.20
28532;DHT22;15738;44.860;10.066;2023-06-26T14:12:28;32.80;95.00
28532;DHT22;15738;44.860;10.066;2023-06-26T14:15:14;32.70;94.00
28532;DHT22;15738;44.860;10.066;2023-06-26T14:18:00;32.70;94.00
28532;DHT22;15738;44.860;10.066;2023-06-26T14:20:48;32.50;94.20
28532;DHT22;15738;44.860;10.066;2023-06-26T14:23:34;32.50;94.10
28532;DHT22;15738;44.860;10.066;2023-06-26T14:26:19;32.50;94.20
28532;DHT22;15738;44.860;10.066;2023-06-26T14:29:06;32.60;94.80
28532;DHT22;15738;44.860;10.066;2023-06-26T14:31:51;32.50;94.20
28532;DHT22;15738;44.860;10.066;2023-06-26T14:34:41;32.50;94.80
28532;DHT22;15738;44.860;10.066;2023-06-26T14:37:28;32.50;94.90
28532;DHT22;15738;44.860;10.066;2023-06-26T14:40:14;32.50;94.40
28532;DHT22;15738;44.860;10.066;2023-06-26T14:43:00;32.60;94.80
28532;DHT22;15738;44.860;10.066;2023-06-26T14:45:46;32.70;94.70
28532;DHT22;15738;44.860;10.066;2023-06-26T14:48:33;32.70;94.80
28532;DHT22;15738;44.860;10.066;2023-06-26T14:51:18;32.70;95.10
28532;DHT22;15738;44.860;10.066;2023-06-26T14:54:05;32.80;94.60
28532;DHT22;15738;44.860;10.066;2023-06-26T14:56:51;32.80;94.80
28532;DHT22;15738;44.860;10.066;2023-06-26T14:59:36;32.70;94.40
28532;DHT22;15738;44.860;10.066;2023-06-26T15:02:22;32.80;95.20
28532;DHT22;15738;44.860;10.066;2023-06-26T15:05:08;32.60;95.40
28532;DHT22;15738;44.860;10.066;2023-06-26T15:07:54;32.60;94.50
28532;DHT22;15738;44.860;10.066;2023-06-26T15:10:39;32.60;94.20
28532;DHT22;15738;44.860;10.066;2023-06-26T15:13:26;32.70;94.20
28532;DHT22;15738;44.860;10.066;2023-06-26T15:16:12;32.80;94.30
28532;DHT22;15738;44.860;10.066;2023-06-26T15:18:57;32.90;93.90
28532;DHT22;15738;44.860;10.066;2023-06-26T15:21:43;33.00;93.90
28532;DHT22;15738;44.860;10.066;2023-06-26T15:24:29;32.80;94.10
28532;DHT22;15738;44.860;10.066;2023-06-26T15:27:15;32.80;93.80
28532;DHT22;15738;44.860;10.066;2023-06-26T15:30:01;32.70;94.10
28532;DHT22;15738;44.860;10.066;2023-06-26T15:32:47;32.70;94.00
28532;DHT22;15738;44.860;10.066;2023-06-26T15:35:32;32.60;93.90
28532;DHT22;15738;44.860;10.066;2023-06-26T15:38:18;32.60;93.80
28532;DHT22;15738;44.860;10.066;2023-06-26T15:41:04;32.60;94.00
28532;DHT22;15738;44.860;10.066;2023-06-26T15:43:50;32.70;94.10
28532;DHT22;15738;44.860;10.066;2023-06-26T15:46:36;32.60;94.20
28532;DHT22;15738;44.860;10.066;2023-06-26T15:49:21;32.80;94.90
28532;DHT22;15738;44.860;10.066;2023-06-26T15:52:07;32.80;94.60
28532;DHT22;15738;44.860;10.066;2023-06-26T15:54:52;32.80;94.10
28532;DHT22;15738;44.860;10.066;2023-06-26T15:57:38;32.80;93.90
28532;DHT22;15738;44.860;10.066;2023-06-26T16:00:23;32.70;94.30
28532;DHT22;15738;44.860;10.066;2023-06-26T16:03:09;32.80;94.00
28532;DHT22;15738;44.860;10.066;2023-06-26T16:05:54;32.80;94.70
28532;DHT22;15738;44.860;10.066;2023-06-26T16:08:41;32.70;94.30
28532;DHT22;15738;44.860;10.066;2023-06-26T16:11:27;32.70;94.50
28532;DHT22;15738;44.860;10.066;2023-06-26T16:14:12;32.70;94.50
28532;DHT22;15738;44.860;10.066;2023-06-26T16:16:58;32.70;94.60
28532;DHT22;15738;44.860;10.066;2023-06-26T16:19:45;32.70;94.60
28532;DHT22;15738;44.860;10.066;2023-06-26T16:22:31;32.70;95.10
28532;DHT22;15738;44.860;10.066;2023-06-26T16:25:16;32.50;95.00
28532;DHT22;15738;44.860;10.066;2023-06-26T16:28:02;32.50;94.60
28532;DHT22;15738;44.860;10.066;2023-06-26T16:30:48;32.50;94.60
28532;DHT22;15738;44.860;10.066;2023-06-26T16:33:34;32.50;94.50
28532;DHT22;15738;44.860;10.066;2023-06-26T16:36:19;32.60;94.60
28532;DHT22;15738;44.860;10.066;2023-06-26T16:39:05;32.50;94.40
28532;DHT22;15738;44.860;10.066;2023-06-26T16:41:51;32.50;94.70
28532;DHT22;15738;44.860;10.066;2023-06-26T16:44:40;32.50;94.70
28532;DHT22;15738;44.860;10.066;2023-06-26T16:47:26;32.60;94.70
28532;DHT22;15738;44.860;10.066;2023-06-26T16:50:17;32.50;94.60
28532;DHT22;15738;44.860;10.066;2023-06-26T16:53:03;32.50;94.80
28532;DHT22;15738;44.860;10.066;2023-06-26T16:55:49;32.50;94.50
28532;DHT22;15738;44.860;10.066;2023-06-26T16:58:35;32.50;94.40
28532;DHT22;15738;44.860;10.066;2023-06-26T17:01:21;32.40;94.60
28532;DHT22;15738;44.860;10.066;2023-06-26T17:04:07;32.40;94.90
28532;DHT22;15738;44.860;10.066;2023-06-26T17:06:52;32.30;95.10
28532;DHT22;15738;44.860;10.066;2023-06-26T17:09:41;32.30;95.20
28532;DHT22;15738;44.860;10.066;2023-06-26T17:12:29;32.40;94.70
28532;DHT22;15738;44.860;10.066;2023-06-26T17:15:14;32.30;94.30
28532;DHT22;15738;44.860;10.066;2023-06-26T17:18:00;32.30;94.70
28532;DHT22;15738;44.860;10.066;2023-06-26T17:20:46;32.30;94.90
28532;DHT22;15738;44.860;10.066;2023-06-26T17:23:31;32.20;94.90
28532;DHT22;15738;44.860;10.066;2023-06-26T17:26:17;32.00;94.60
28532;DHT22;15738;44.860;10.066;2023-06-26T17:29:04;32.00;95.10